Time;durP1;ratioP1;P1;durP2;ratioP2;P2;SDS_P1;SDS_P2;PMS_P1;PMS_P2;Temp;Humidity;BMP_temperature;BMP_pressure;BME280_temperature;BME280_humidity;BME280_pressure;Samples;Min_cycle;Max_cycle;Signal;HPM_P1;HPM_P2
2021/12/20 00:00:08;;;;;;;11.57;7.38;;;;;;;;;;5007482;28;20478;-74
2021/12/20 00:02:35;;;;;;;9.30;7.27;;;;;;;;;;5009429;28;20196;-74
2021/12/20 00:05:02;;;;;;;9.90;7.00;;;;;;;;;;5011216;28;20435;-74
2021/12/20 00:07:30;;;;;;;11.07;7.70;;;;;;;;;;5007334;28;20444;-75
2021/12/20 00:09:57;;;;;;;9.47;6.20;;;;;;;;;;4994734;28;20468;-75
2021/12/20 00:12:25;;;;;;;7.63;6.50;;;;;;;;;;5000878;28;20462;-74
2021/12/20 00:14:53;;;;;;;12.70;7.37;;;;;;;;;;5007507;28;20490;-75
2021/12/20 00:17:20;;;;;;;14.33;7.07;;;;;;;;;;5007005;28;20466;-77
2021/12/20 00:19:47;;;;;;;8.77;6.27;;;;;;;;;;4969615;28;1083933;-74
2021/12/20 00:22:14;;;;;;;8.23;5.70;;;;;;;;;;5005214;28;20680;-74
2021/12/20 00:24:41;;;;;;;10.50;5.53;;;;;;;;;;4996339;28;20800;-74
2021/12/20 00:27:11;;;;;;;12.50;6.50;;;;;;;;;;4992601;28;20438;-75
2021/12/20 00:29:39;;;;;;;8.43;6.37;;;;;;;;;;5005579;28;21069;-74
2021/12/20 00:32:07;;;;;;;7.40;6.07;;;;;;;;;;5007439;28;20447;-74
2021/12/20 00:34:36;;;;;;;10.20;5.97;;;;;;;;;;5007528;28;20490;-73
2021/12/20 00:40:19;;;;;;;11.73;6.10;;;;;;;;;;5009119;28;20442;-75
2021/12/20 00:42:31;;;;;;;7.30;5.40;;;;;;;;;;5011098;28;20763;-74
2021/12/20 00:45:00;;;;;;;8.80;5.37;;;;;;;;;;5005028;28;20428;-74
2021/12/20 00:47:27;;;;;;;10.13;6.22;;;;;;;;;;5003344;28;20439;-74
2021/12/20 00:49:54;;;;;;;9.20;6.30;;;;;;;;;;5007578;28;20236;-74
2021/12/20 00:52:21;;;;;;;7.40;5.70;;;;;;;;;;5012248;28;20454;-75
2021/12/20 00:54:49;;;;;;;5.15;4.47;;;;;;;;;;5012779;28;20316;-74
2021/12/20 00:57:16;;;;;;;10.67;5.27;;;;;;;;;;5011331;28;20546;-74
2021/12/20 00:59:43;;;;;;;9.17;5.50;;;;;;;;;;5011687;28;20470;-75
2021/12/20 01:02:11;;;;;;;7.77;5.00;;;;;;;;;;5014918;28;20447;-74
2021/12/20 01:04:39;;;;;;;12.48;5.18;;;;;;;;;;5012461;28;20447;-74
2021/12/20 01:07:06;;;;;;;10.23;5.63;;;;;;;;;;5008086;28;20207;-75
2021/12/20 01:09:33;;;;;;;8.32;4.15;;;;;;;;;;4998616;28;20454;-74
2021/12/20 01:12:04;;;;;;;10.10;5.90;;;;;;;;;;5008552;28;20200;-75
2021/12/20 01:14:33;;;;;;;8.10;5.30;;;;;;;;;;5006880;28;20454;-74
2021/12/20 01:17:05;;;;;;;10.10;4.87;;;;;;;;;;4992447;28;20721;-74
2021/12/20 01:19:34;;;;;;;6.03;4.67;;;;;;;;;;4992732;28;20522;-74
2021/12/20 01:22:02;;;;;;;8.50;4.60;;;;;;;;;;4998653;28;20817;-74
2021/12/20 01:24:29;;;;;;;7.32;4.63;;;;;;;;;;5012697;28;20454;-74
2021/12/20 01:26:56;;;;;;;9.93;5.10;;;;;;;;;;5015105;28;20196;-75
2021/12/20 01:29:24;;;;;;;7.05;4.40;;;;;;;;;;4999087;28;20193;-74
2021/12/20 01:31:51;;;;;;;7.07;4.82;;;;;;;;;;4999456;28;20581;-74
2021/12/20 01:34:19;;;;;;;8.65;4.47;;;;;;;;;;5006628;28;20688;-74
2021/12/20 01:36:47;;;;;;;7.73;4.40;;;;;;;;;;5009363;28;20222;-74
2021/12/20 01:39:14;;;;;;;8.55;4.47;;;;;;;;;;5012079;28;20451;-74
2021/12/20 01:41:42;;;;;;;7.07;4.00;;;;;;;;;;5011585;28;20206;-75
2021/12/20 01:44:10;;;;;;;6.50;3.50;;;;;;;;;;5011812;28;20200;-75
2021/12/20 01:46:37;;;;;;;8.38;4.55;;;;;;;;;;4997376;28;20205;-75
2021/12/20 01:49:07;;;;;;;11.20;4.97;;;;;;;;;;4995426;28;20215;-75
2021/12/20 01:51:48;;;;;;;8.37;3.93;;;;;;;;;;5004985;28;20513;-75
2021/12/20 01:54:17;;;;;;;9.77;4.32;;;;;;;;;;5011038;28;20836;-74
2021/12/20 01:56:45;;;;;;;5.50;4.00;;;;;;;;;;5009423;28;20231;-75
2021/12/20 01:59:12;;;;;;;6.72;4.05;;;;;;;;;;5010862;28;20537;-73
2021/12/20 02:01:41;;;;;;;9.90;4.20;;;;;;;;;;4996522;28;20228;-74
2021/12/20 02:04:09;;;;;;;5.97;4.17;;;;;;;;;;4996933;28;20432;-73
2021/12/20 02:06:39;;;;;;;5.93;3.47;;;;;;;;;;5008523;28;20454;-73
2021/12/20 02:09:07;;;;;;;7.05;4.20;;;;;;;;;;5008088;28;20202;-73
2021/12/20 02:11:36;;;;;;;6.30;3.77;;;;;;;;;;5010416;28;20719;-75
2021/12/20 02:14:04;;;;;;;8.10;4.63;;;;;;;;;;5007476;28;20833;-74
2021/12/20 02:16:31;;;;;;;10.50;4.20;;;;;;;;;;5011955;28;20494;-73
2021/12/20 02:19:01;;;;;;;8.30;4.53;;;;;;;;;;5010338;28;20455;-74
2021/12/20 02:21:30;;;;;;;8.13;4.53;;;;;;;;;;5013560;28;20224;-74
2021/12/20 02:23:57;;;;;;;7.60;3.90;;;;;;;;;;5000146;28;20446;-75
2021/12/20 02:26:24;;;;;;;6.60;4.25;;;;;;;;;;5000215;28;20540;-74
2021/12/20 02:28:53;;;;;;;4.97;4.15;;;;;;;;;;5011069;28;20384;-73
2021/12/20 02:37:20;;;;;;;10.48;4.13;;;;;;;;;;5009197;28;20541;-76
2021/12/20 02:39:47;;;;;;;7.72;4.20;;;;;;;;;;5013594;28;20572;-73
2021/12/20 02:42:19;;;;;;;11.02;3.90;;;;;;;;;;5012350;28;20218;-75
2021/12/20 02:44:47;;;;;;;10.98;3.75;;;;;;;;;;5006140;28;20298;-74
2021/12/20 02:47:26;;;;;;;12.63;3.97;;;;;;;;;;4997772;28;20220;-75
2021/12/20 02:49:53;;;;;;;10.60;4.55;;;;;;;;;;5007147;28;20219;-74
2021/12/20 02:52:22;;;;;;;8.15;4.82;;;;;;;;;;5010001;28;20196;-74
2021/12/20 02:54:49;;;;;;;9.18;4.38;;;;;;;;;;5008889;28;20584;-74
2021/12/20 02:57:16;;;;;;;7.50;4.13;;;;;;;;;;5010582;28;20228;-74
2021/12/20 02:59:43;;;;;;;10.75;4.90;;;;;;;;;;5007694;28;20584;-74
2021/12/20 03:02:12;;;;;;;9.05;4.25;;;;;;;;;;4995767;28;20208;-74
2021/12/20 03:04:39;;;;;;;11.00;4.40;;;;;;;;;;4993460;28;20551;-76
2021/12/20 03:07:09;;;;;;;9.18;4.03;;;;;;;;;;4988660;28;20950;-75
2021/12/20 03:09:40;;;;;;;11.90;4.40;;;;;;;;;;5006912;28;20227;-75
2021/12/20 03:12:08;;;;;;;13.68;4.25;;;;;;;;;;5008259;28;20465;-74
2021/12/20 03:14:39;;;;;;;11.98;4.38;;;;;;;;;;5009595;28;20196;-75
2021/12/20 03:17:07;;;;;;;5.47;3.63;;;;;;;;;;5006187;28;20290;-76
2021/12/20 03:19:34;;;;;;;12.35;4.18;;;;;;;;;;4996097;28;20252;-74
2021/12/20 03:22:02;;;;;;;10.83;4.10;;;;;;;;;;4998403;28;20833;-75
2021/12/20 03:24:29;;;;;;;11.23;3.85;;;;;;;;;;5010583;28;20952;-74
2021/12/20 03:26:58;;;;;;;14.90;5.23;;;;;;;;;;5007890;28;20200;-74
2021/12/20 03:29:25;;;;;;;8.55;3.70;;;;;;;;;;5008697;28;20439;-74
2021/12/20 03:31:53;;;;;;;9.45;4.35;;;;;;;;;;5008223;28;20200;-74
2021/12/20 03:34:20;;;;;;;10.10;3.57;;;;;;;;;;5005330;28;20235;-74
2021/12/20 03:36:48;;;;;;;13.75;5.10;;;;;;;;;;4994575;28;20494;-74
2021/12/20 03:39:15;;;;;;;8.38;4.40;;;;;;;;;;4989731;28;20193;-75
2021/12/20 03:41:42;;;;;;;12.85;5.07;;;;;;;;;;4988576;28;20223;-76
2021/12/20 03:44:11;;;;;;;9.07;4.23;;;;;;;;;;4989216;28;20205;-75
2021/12/20 03:46:38;;;;;;;11.23;4.07;;;;;;;;;;4989115;28;20530;-75
2021/12/20 03:49:06;;;;;;;10.07;5.43;;;;;;;;;;4998980;28;20204;-75
2021/12/20 03:51:33;;;;;;;8.85;4.72;;;;;;;;;;4998370;28;20468;-75
2021/12/20 03:54:01;;;;;;;15.38;5.07;;;;;;;;;;4997858;28;20197;-74
2021/12/20 03:56:28;;;;;;;10.20;4.43;;;;;;;;;;5008611;28;20223;-74
2021/12/20 03:58:55;;;;;;;8.40;4.57;;;;;;;;;;5011715;28;20216;-75
2021/12/20 04:01:25;;;;;;;8.57;4.35;;;;;;;;;;5003731;28;20471;-74
2021/12/20 04:03:52;;;;;;;9.23;4.40;;;;;;;;;;5009027;28;20293;-75
2021/12/20 04:06:19;;;;;;;12.03;6.00;;;;;;;;;;5006009;28;20464;-74
2021/12/20 04:08:48;;;;;;;10.77;4.53;;;;;;;;;;4996336;28;21968;-74
2021/12/20 04:11:15;;;;;;;14.33;4.50;;;;;;;;;;5001232;28;20574;-75
2021/12/20 04:13:42;;;;;;;13.33;4.23;;;;;;;;;;5008865;28;20454;-75
2021/12/20 04:16:09;;;;;;;7.50;4.13;;;;;;;;;;5005027;28;20490;-75
2021/12/20 04:18:38;;;;;;;8.82;4.22;;;;;;;;;;5009508;28;20451;-74
2021/12/20 04:21:05;;;;;;;9.73;4.23;;;;;;;;;;5003219;28;20230;-73
2021/12/20 04:23:32;;;;;;;7.22;3.55;;;;;;;;;;5009299;28;20474;-74
2021/12/20 04:25:59;;;;;;;12.40;4.67;;;;;;;;;;5011652;28;20200;-75
2021/12/20 04:28:26;;;;;;;10.98;4.22;;;;;;;;;;5008940;28;20446;-74
2021/12/20 04:30:54;;;;;;;8.88;4.07;;;;;;;;;;4994712;28;20562;-74
2021/12/20 04:33:21;;;;;;;10.43;3.90;;;;;;;;;;5000912;28;20737;-75
2021/12/20 04:35:50;;;;;;;9.13;4.53;;;;;;;;;;5009117;28;20483;-75
2021/12/20 04:38:17;;;;;;;8.63;4.17;;;;;;;;;;5007288;28;20455;-75
2021/12/20 04:40:45;;;;;;;12.80;5.03;;;;;;;;;;5008926;28;20833;-75
2021/12/20 04:43:12;;;;;;;10.30;3.60;;;;;;;;;;5007142;28;20201;-74
2021/12/20 04:45:41;;;;;;;7.73;3.53;;;;;;;;;;4996865;28;20495;-74
2021/12/20 04:48:09;;;;;;;10.77;4.50;;;;;;;;;;4990301;28;20447;-75
2021/12/20 04:50:36;;;;;;;8.87;4.43;;;;;;;;;;4989023;28;20589;-75
2021/12/20 04:53:05;;;;;;;6.93;4.07;;;;;;;;;;4988418;28;20454;-74
2021/12/20 04:55:32;;;;;;;8.13;4.30;;;;;;;;;;4994935;28;20486;-76
2021/12/20 04:58:01;;;;;;;11.43;4.90;;;;;;;;;;5009431;28;20437;-75
2021/12/20 05:00:29;;;;;;;11.13;4.57;;;;;;;;;;5007781;28;20501;-76
2021/12/20 05:02:57;;;;;;;10.73;4.47;;;;;;;;;;5011402;28;20453;-76
2021/12/20 05:05:24;;;;;;;7.77;4.70;;;;;;;;;;5009903;28;20446;-74
2021/12/20 05:07:53;;;;;;;11.00;4.50;;;;;;;;;;4999890;28;20460;-75
2021/12/20 05:10:29;;;;;;;8.30;3.85;;;;;;;;;;4994203;28;20464;-75
2021/12/20 05:12:57;;;;;;;8.33;4.40;;;;;;;;;;4998862;28;20200;-74
2021/12/20 05:15:25;;;;;;;10.40;4.53;;;;;;;;;;5008431;28;20530;-74
2021/12/20 05:17:52;;;;;;;13.93;3.63;;;;;;;;;;5007498;28;20487;-74
2021/12/20 05:20:19;;;;;;;10.90;4.90;;;;;;;;;;5008409;28;20489;-74
2021/12/20 05:22:47;;;;;;;13.37;3.90;;;;;;;;;;5007799;28;20455;-74
2021/12/20 05:25:14;;;;;;;13.80;4.67;;;;;;;;;;5006446;28;20462;-74
2021/12/20 05:27:42;;;;;;;10.17;5.00;;;;;;;;;;5010539;28;20442;-75
2021/12/20 05:30:10;;;;;;;10.68;4.10;;;;;;;;;;4999115;28;20452;-75
2021/12/20 05:32:38;;;;;;;16.85;4.18;;;;;;;;;;4996910;28;20201;-75
2021/12/20 05:35:06;;;;;;;16.15;5.53;;;;;;;;;;4990443;28;20772;-75
2021/12/20 05:37:33;;;;;;;9.90;4.40;;;;;;;;;;5004807;28;20219;-74
2021/12/20 05:40:00;;;;;;;14.83;3.90;;;;;;;;;;5011835;28;20451;-75
2021/12/20 05:42:27;;;;;;;10.30;4.87;;;;;;;;;;5010979;28;20443;-75
2021/12/20 05:44:55;;;;;;;6.07;3.55;;;;;;;;;;5004169;28;20459;-75
2021/12/20 05:47:23;;;;;;;12.68;3.38;;;;;;;;;;4997834;28;20189;-76
2021/12/20 05:49:50;;;;;;;10.48;3.67;;;;;;;;;;4993356;28;20217;-76
2021/12/20 05:52:18;;;;;;;9.93;4.63;;;;;;;;;;4994831;28;20193;-75
2021/12/20 05:54:45;;;;;;;14.05;3.85;;;;;;;;;;5008663;28;20276;-75
2021/12/20 05:57:13;;;;;;;12.50;4.10;;;;;;;;;;5011250;28;20697;-75
2021/12/20 05:59:40;;;;;;;17.23;5.30;;;;;;;;;;5009149;28;20463;-74
2021/12/20 06:02:08;;;;;;;15.63;4.30;;;;;;;;;;5003353;28;20215;-74
2021/12/20 06:04:35;;;;;;;11.35;4.20;;;;;;;;;;4997355;28;20466;-74
2021/12/20 06:07:03;;;;;;;12.40;4.05;;;;;;;;;;4991565;28;20197;-75
2021/12/20 06:09:30;;;;;;;9.65;3.65;;;;;;;;;;5005191;28;20196;-74
2021/12/20 06:11:59;;;;;;;15.27;4.35;;;;;;;;;;5011701;28;20569;-76
2021/12/20 06:14:27;;;;;;;16.85;4.07;;;;;;;;;;5010140;28;20200;-74
2021/12/20 06:16:55;;;;;;;11.57;4.25;;;;;;;;;;5005782;28;20227;-74
2021/12/20 06:19:24;;;;;;;12.77;3.85;;;;;;;;;;4998331;28;20671;-75
2021/12/20 06:21:52;;;;;;;10.75;3.83;;;;;;;;;;4994238;28;20228;-75
2021/12/20 06:24:19;;;;;;;18.80;4.07;;;;;;;;;;5010657;28;20530;-75
2021/12/20 06:26:46;;;;;;;8.15;3.65;;;;;;;;;;5009783;28;20458;-75
2021/12/20 06:29:13;;;;;;;8.67;3.43;;;;;;;;;;5010960;28;20203;-75
2021/12/20 06:31:40;;;;;;;8.43;3.28;;;;;;;;;;5009812;28;20451;-74
2021/12/20 06:34:08;;;;;;;10.18;3.42;;;;;;;;;;5000470;28;20204;-75
2021/12/20 06:36:36;;;;;;;15.00;3.83;;;;;;;;;;4997833;28;20225;-75
2021/12/20 06:39:04;;;;;;;7.47;3.00;;;;;;;;;;5004856;28;20471;-76
2021/12/20 06:41:32;;;;;;;5.83;2.70;;;;;;;;;;5009773;28;20239;-75
2021/12/20 06:44:01;;;;;;;10.73;5.40;;;;;;;;;;5008086;28;20446;-75
2021/12/20 06:46:29;;;;;;;14.43;4.38;;;;;;;;;;5011139;28;20445;-76
2021/12/20 06:48:56;;;;;;;10.15;4.55;;;;;;;;;;5007929;28;20210;-75
2021/12/20 06:51:23;;;;;;;12.40;3.80;;;;;;;;;;5012711;28;20216;-74
2021/12/20 06:53:54;;;;;;;9.18;3.85;;;;;;;;;;5012978;28;20956;-73
2021/12/20 06:56:21;;;;;;;17.48;4.78;;;;;;;;;;5006370;28;20657;-75
2021/12/20 06:58:52;;;;;;;7.60;2.95;;;;;;;;;;4996207;28;20653;-74
2021/12/20 07:01:20;;;;;;;9.20;2.93;;;;;;;;;;4992102;28;20271;-74
2021/12/20 07:03:47;;;;;;;12.30;3.10;;;;;;;;;;5000531;28;20485;-76
2021/12/20 07:06:14;;;;;;;10.32;2.88;;;;;;;;;;5010189;28;20819;-74
2021/12/20 07:08:41;;;;;;;14.68;3.00;;;;;;;;;;5003452;28;20562;-75
2021/12/20 07:11:10;;;;;;;10.40;3.28;;;;;;;;;;4959779;28;20216;-74
2021/12/20 07:13:37;;;;;;;14.00;4.77;;;;;;;;;;5002237;28;20215;-75
2021/12/20 07:16:05;;;;;;;12.20;3.50;;;;;;;;;;5012175;28;20447;-75
2021/12/20 07:18:32;;;;;;;12.15;3.78;;;;;;;;;;5002633;28;20924;-74
2021/12/20 07:20:59;;;;;;;11.20;3.60;;;;;;;;;;4994416;28;20240;-75
2021/12/20 07:23:26;;;;;;;9.77;3.22;;;;;;;;;;4995150;28;20435;-74
2021/12/20 07:25:54;;;;;;;11.90;3.00;;;;;;;;;;5006811;28;20211;-74
2021/12/20 07:28:22;;;;;;;13.77;4.22;;;;;;;;;;5010187;28;20439;-73
2021/12/20 07:30:50;;;;;;;10.50;3.10;;;;;;;;;;5008979;28;20203;-75
2021/12/20 07:33:18;;;;;;;6.73;2.83;;;;;;;;;;5009711;28;20204;-75
2021/12/20 07:35:46;;;;;;;13.95;3.17;;;;;;;;;;5000688;28;20448;-75
2021/12/20 07:38:14;;;;;;;9.67;2.70;;;;;;;;;;4995088;28;20255;-75
2021/12/20 07:40:44;;;;;;;6.30;2.63;;;;;;;;;;4991881;28;20572;-75
2021/12/20 07:43:11;;;;;;;9.95;3.65;;;;;;;;;;5006890;28;20447;-75
2021/12/20 07:45:40;;;;;;;7.40;3.90;;;;;;;;;;5007778;28;20199;-76
2021/12/20 07:48:07;;;;;;;10.93;3.13;;;;;;;;;;5009019;28;20533;-74
2021/12/20 07:50:34;;;;;;;13.00;3.90;;;;;;;;;;5006112;28;20482;-74
2021/12/20 07:53:02;;;;;;;9.10;3.65;;;;;;;;;;5007470;28;20204;-73
2021/12/20 07:55:29;;;;;;;12.32;3.42;;;;;;;;;;4994986;28;20872;-75
2021/12/20 07:57:57;;;;;;;6.90;3.25;;;;;;;;;;4994321;28;20247;-76
2021/12/20 08:00:25;;;;;;;9.27;2.70;;;;;;;;;;4988655;28;20205;-75
2021/12/20 08:02:55;;;;;;;10.55;4.25;;;;;;;;;;4968169;28;21070;-76
2021/12/20 08:05:22;;;;;;;10.30;3.70;;;;;;;;;;4967743;28;20208;-74
2021/12/20 08:07:50;;;;;;;9.48;3.60;;;;;;;;;;4981590;28;20292;-74
2021/12/20 08:10:17;;;;;;;16.48;3.58;;;;;;;;;;4982308;28;20327;-75
2021/12/20 08:12:45;;;;;;;12.38;3.70;;;;;;;;;;4995680;28;20192;-76
2021/12/20 08:15:12;;;;;;;13.80;3.33;;;;;;;;;;5000565;28;20207;-75
2021/12/20 08:17:39;;;;;;;11.05;3.75;;;;;;;;;;5005791;28;20227;-75
2021/12/20 08:20:09;;;;;;;13.10;4.30;;;;;;;;;;5005875;28;20231;-76
2021/12/20 08:22:37;;;;;;;16.50;5.18;;;;;;;;;;4988433;28;20197;-75
2021/12/20 08:25:04;;;;;;;14.25;4.90;;;;;;;;;;4997386;28;20643;-75
2021/12/20 08:27:31;;;;;;;13.57;4.90;;;;;;;;;;4993751;28;20196;-75
2021/12/20 08:29:59;;;;;;;20.25;5.00;;;;;;;;;;5000290;28;20212;-76
2021/12/20 08:32:27;;;;;;;16.80;4.15;;;;;;;;;;5007274;28;20803;-76
2021/12/20 08:34:54;;;;;;;12.25;3.65;;;;;;;;;;5005604;28;20204;-76
2021/12/20 08:37:23;;;;;;;19.40;4.68;;;;;;;;;;4994512;28;20220;-74
2021/12/20 08:39:50;;;;;;;10.82;3.30;;;;;;;;;;4991843;28;20218;-74
2021/12/20 08:42:17;;;;;;;11.18;4.22;;;;;;;;;;4999198;28;20256;-75
2021/12/20 08:44:44;;;;;;;17.13;3.85;;;;;;;;;;4995029;28;20205;-75
2021/12/20 08:47:11;;;;;;;12.60;4.15;;;;;;;;;;4993199;28;20877;-74
2021/12/20 08:49:39;;;;;;;23.75;5.10;;;;;;;;;;5004839;28;20211;-75
2021/12/20 08:52:07;;;;;;;15.05;4.28;;;;;;;;;;5005600;28;20795;-75
2021/12/20 08:54:35;;;;;;;16.13;4.38;;;;;;;;;;5008774;28;20708;-76
2021/12/20 08:57:02;;;;;;;18.33;4.60;;;;;;;;;;5009863;28;20212;-74
2021/12/20 08:59:31;;;;;;;14.07;3.50;;;;;;;;;;4992479;28;20665;-75
2021/12/20 09:01:59;;;;;;;15.38;4.80;;;;;;;;;;5000690;28;20548;-74
2021/12/20 09:04:26;;;;;;;20.10;4.63;;;;;;;;;;4992629;28;20291;-74
2021/12/20 09:06:53;;;;;;;11.60;3.85;;;;;;;;;;4997232;28;20941;-74
2021/12/20 09:09:21;;;;;;;22.40;4.97;;;;;;;;;;5011684;28;20200;-75
2021/12/20 09:11:49;;;;;;;16.25;4.05;;;;;;;;;;5011884;28;20279;-76
2021/12/20 09:14:16;;;;;;;17.95;6.38;;;;;;;;;;5010445;28;20198;-75
2021/12/20 09:16:44;;;;;;;13.45;5.00;;;;;;;;;;5012563;28;20291;-75
2021/12/20 09:19:11;;;;;;;16.88;5.05;;;;;;;;;;5012904;28;20224;-75
2021/12/20 09:21:38;;;;;;;15.48;5.72;;;;;;;;;;5014242;28;20235;-75
2021/12/20 09:24:09;;;;;;;15.43;4.90;;;;;;;;;;5013115;28;20681;-75
2021/12/20 09:26:36;;;;;;;9.90;4.70;;;;;;;;;;5005289;28;20287;-76
2021/12/20 09:29:04;;;;;;;21.30;6.40;;;;;;;;;;4998158;28;20232;-76
2021/12/20 09:31:32;;;;;;;15.23;4.63;;;;;;;;;;5001895;28;20220;-76
2021/12/20 09:33:59;;;;;;;19.25;5.95;;;;;;;;;;5010700;28;20203;-75
2021/12/20 09:36:29;;;;;;;15.63;5.35;;;;;;;;;;5010214;28;20608;-76
2021/12/20 09:38:57;;;;;;;20.17;5.30;;;;;;;;;;5011206;28;20619;-74
2021/12/20 09:41:59;;;;;;;13.20;4.10;;;;;;;;;;5008884;28;20238;-75
2021/12/20 09:44:23;;;;;;;9.63;4.47;;;;;;;;;;4996275;28;20630;-75
2021/12/20 09:46:51;;;;;;;16.20;4.80;;;;;;;;;;4983335;28;20658;-75
2021/12/20 09:49:20;;;;;;;16.30;4.70;;;;;;;;;;4979443;28;20205;-75
2021/12/20 09:51:48;;;;;;;20.08;4.72;;;;;;;;;;4976547;28;20283;-74
2021/12/20 09:54:15;;;;;;;16.63;4.80;;;;;;;;;;4969244;28;20197;-74
2021/12/20 09:56:43;;;;;;;15.55;5.20;;;;;;;;;;4977669;28;20692;-76
2021/12/20 09:59:12;;;;;;;15.85;5.55;;;;;;;;;;4983818;28;20227;-74
2021/12/20 10:01:41;;;;;;;15.68;4.72;;;;;;;;;;4985409;28;20196;-76
2021/12/20 10:04:08;;;;;;;14.05;5.35;;;;;;;;;;4983986;28;20200;-75
2021/12/20 10:06:35;;;;;;;16.42;5.10;;;;;;;;;;4970798;28;20204;-74
2021/12/20 10:09:04;;;;;;;12.57;5.25;;;;;;;;;;4978821;28;20211;-76
2021/12/20 10:11:31;;;;;;;18.52;6.60;;;;;;;;;;4987736;28;20231;-75
2021/12/20 10:14:07;;;;;;;27.55;6.95;;;;;;;;;;4981931;28;20208;-75
2021/12/20 10:16:35;;;;;;;19.95;5.97;;;;;;;;;;4986915;28;20218;-77
2021/12/20 10:19:03;;;;;;;19.25;4.85;;;;;;;;;;4990939;28;20274;-75
2021/12/20 10:21:39;;;;;;;16.67;5.00;;;;;;;;;;4992128;28;20761;-75
2021/12/20 10:24:06;;;;;;;16.75;5.07;;;;;;;;;;4989349;28;20196;-74
2021/12/20 10:26:39;;;;;;;14.07;4.85;;;;;;;;;;4988632;28;20211;-72
2021/12/20 10:29:17;;;;;;;15.77;4.47;;;;;;;;;;4969748;28;20441;-76
2021/12/20 10:31:44;;;;;;;15.43;4.63;;;;;;;;;;4971330;28;20204;-76
2021/12/20 10:34:13;;;;;;;22.13;4.88;;;;;;;;;;4965970;28;20200;-76
2021/12/20 10:36:50;;;;;;;22.42;5.47;;;;;;;;;;4979947;28;20403;-75
2021/12/20 10:39:17;;;;;;;16.83;5.38;;;;;;;;;;4987147;28;20752;-75
2021/12/20 10:41:50;;;;;;;15.70;4.45;;;;;;;;;;4974293;28;20482;-74
2021/12/20 10:44:20;;;;;;;12.75;4.32;;;;;;;;;;4976123;28;20334;-75
2021/12/20 10:46:48;;;;;;;18.88;4.18;;;;;;;;;;4976729;28;21094;-75
2021/12/20 10:49:18;;;;;;;16.55;5.63;;;;;;;;;;4984647;28;20208;-75
2021/12/20 10:51:48;;;;;;;12.63;5.22;;;;;;;;;;4989576;28;20294;-75
2021/12/20 10:54:18;;;;;;;13.55;4.72;;;;;;;;;;4987670;28;20196;-75
2021/12/20 10:56:50;;;;;;;11.23;4.35;;;;;;;;;;4986429;28;20200;-75
2021/12/20 10:59:17;;;;;;;16.92;5.75;;;;;;;;;;4973737;28;20228;-74
2021/12/20 11:02:24;;;;;;;12.18;4.70;;;;;;;;;;4978450;28;20195;-76
2021/12/20 11:04:48;;;;;;;12.23;3.70;;;;;;;;;;4968789;28;20203;-76
2021/12/20 11:10:02;;;;;;;10.15;3.80;;;;;;;;;;4983127;28;20235;-76
2021/12/20 11:12:32;;;;;;;14.88;3.72;;;;;;;;;;4974485;28;20211;-75
2021/12/20 11:15:00;;;;;;;16.35;3.55;;;;;;;;;;4977734;28;20200;-73
2021/12/20 11:17:29;;;;;;;14.60;3.60;;;;;;;;;;4973413;28;20246;-76
2021/12/20 11:19:58;;;;;;;8.80;3.00;;;;;;;;;;4986356;28;20639;-73
2021/12/20 11:22:25;;;;;;;12.98;3.35;;;;;;;;;;4982672;28;20201;-74
2021/12/20 11:24:54;;;;;;;13.98;2.83;;;;;;;;;;4977728;28;20199;-77
2021/12/20 11:27:23;;;;;;;12.63;3.72;;;;;;;;;;4989918;28;20200;-74
2021/12/20 11:29:51;;;;;;;10.18;3.20;;;;;;;;;;4978815;28;20597;-75
2021/12/20 11:32:19;;;;;;;10.07;3.20;;;;;;;;;;4970751;28;20948;-73
2021/12/20 11:34:46;;;;;;;12.20;2.90;;;;;;;;;;4967284;28;20337;-75
2021/12/20 11:37:20;;;;;;;9.75;3.70;;;;;;;;;;4980058;28;20549;-75
2021/12/20 11:39:48;;;;;;;6.53;2.83;;;;;;;;;;4980622;28;20233;-75
2021/12/20 11:42:16;;;;;;;8.68;3.65;;;;;;;;;;4980634;28;20645;-74
2021/12/20 11:44:44;;;;;;;11.07;3.08;;;;;;;;;;4976450;28;20274;-76
2021/12/20 11:47:17;;;;;;;10.23;2.95;;;;;;;;;;4969287;28;20200;-75
2021/12/20 11:49:44;;;;;;;10.93;3.10;;;;;;;;;;4978468;28;20250;-75
2021/12/20 11:52:16;;;;;;;12.68;3.03;;;;;;;;;;4979028;28;20184;-76
2021/12/20 11:54:46;;;;;;;8.38;3.15;;;;;;;;;;4977375;28;20200;-76
2021/12/20 11:57:28;;;;;;;10.90;2.75;;;;;;;;;;4982143;28;20211;-75
2021/12/20 11:59:57;;;;;;;8.77;3.33;;;;;;;;;;4970400;28;20235;-75
2021/12/20 12:02:26;;;;;;;12.25;3.50;;;;;;;;;;4988797;28;20210;-76
2021/12/20 12:04:57;;;;;;;5.60;2.15;;;;;;;;;;4990705;28;20208;-74
2021/12/20 12:07:27;;;;;;;6.97;2.90;;;;;;;;;;4977470;28;21173;-75
2021/12/20 12:09:58;;;;;;;11.27;3.33;;;;;;;;;;4975217;28;20224;-76
2021/12/20 12:12:26;;;;;;;11.25;2.45;;;;;;;;;;4987177;28;20572;-75
2021/12/20 12:15:03;;;;;;;10.27;2.53;;;;;;;;;;4989412;28;20296;-77
2021/12/20 12:17:47;;;;;;;8.77;2.90;;;;;;;;;;4993554;28;20196;-76
2021/12/20 12:20:15;;;;;;;9.18;2.63;;;;;;;;;;5007859;28;20228;-76
2021/12/20 12:22:43;;;;;;;8.05;2.72;;;;;;;;;;5009543;28;20202;-76
2021/12/20 12:25:11;;;;;;;7.32;2.50;;;;;;;;;;5009719;28;20214;-74
2021/12/20 12:27:41;;;;;;;5.95;2.15;;;;;;;;;;5008209;28;20199;-74
2021/12/20 12:30:23;;;;;;;9.45;2.40;;;;;;;;;;5000221;28;20216;-75
2021/12/20 12:33:05;;;;;;;7.32;3.45;;;;;;;;;;4995137;28;20200;-75
2021/12/20 12:35:47;;;;;;;6.93;1.90;;;;;;;;;;4987606;28;20203;-73
2021/12/20 12:38:17;;;;;;;9.55;2.90;;;;;;;;;;4994114;28;20669;-75
2021/12/20 12:40:45;;;;;;;6.55;2.28;;;;;;;;;;5012212;28;20234;-74
2021/12/20 12:43:13;;;;;;;5.03;2.15;;;;;;;;;;5012637;28;20196;-75
2021/12/20 12:45:48;;;;;;;4.30;2.13;;;;;;;;;;5009613;28;20681;-75
2021/12/20 12:48:30;;;;;;;6.55;2.70;;;;;;;;;;4992130;28;20644;-74
2021/12/20 12:50:57;;;;;;;5.80;2.10;;;;;;;;;;5005903;28;20302;-75
2021/12/20 12:53:39;;;;;;;6.32;2.40;;;;;;;;;;5011670;28;20208;-75
2021/12/20 12:56:21;;;;;;;3.45;1.70;;;;;;;;;;5007712;28;20550;-75
2021/12/20 12:59:08;;;;;;;4.45;1.60;;;;;;;;;;5012093;28;20226;-75
2021/12/20 13:01:39;;;;;;;5.38;1.60;;;;;;;;;;5012634;28;20234;-75
2021/12/20 13:04:06;;;;;;;8.40;1.50;;;;;;;;;;5011915;28;20552;-75
2021/12/20 13:06:33;;;;;;;6.22;1.70;;;;;;;;;;5015229;28;20196;-74
2021/12/20 13:09:00;;;;;;;4.20;1.58;;;;;;;;;;5005233;28;20207;-75
2021/12/20 13:11:30;;;;;;;3.92;1.50;;;;;;;;;;4998105;28;20551;-75
2021/12/20 13:14:08;;;;;;;3.17;1.73;;;;;;;;;;5006435;28;20299;-75
2021/12/20 13:16:43;;;;;;;8.50;3.08;;;;;;;;;;5004665;28;21202;-75
2021/12/20 13:19:13;;;;;;;2.30;2.00;;;;;;;;;;5009842;28;20224;-74
2021/12/20 13:21:54;;;;;;;4.40;2.22;;;;;;;;;;4991852;28;20224;-76
2021/12/20 13:24:21;;;;;;;3.03;1.55;;;;;;;;;;4993633;28;20188;-75
2021/12/20 13:26:49;;;;;;;5.50;2.00;;;;;;;;;;4994027;28;20196;-75
2021/12/20 13:29:16;;;;;;;3.17;1.80;;;;;;;;;;4993520;28;20197;-76
2021/12/20 13:31:45;;;;;;;5.40;1.90;;;;;;;;;;4996936;28;20263;-75
2021/12/20 13:34:14;;;;;;;4.72;2.13;;;;;;;;;;4997315;28;20200;-75
2021/12/20 13:36:50;;;;;;;5.40;2.17;;;;;;;;;;4992353;28;20201;-75
2021/12/20 13:39:18;;;;;;;4.10;2.10;;;;;;;;;;5005931;28;20637;-75
2021/12/20 13:41:45;;;;;;;2.65;1.73;;;;;;;;;;5010970;28;20200;-75
2021/12/20 13:44:14;;;;;;;5.78;2.28;;;;;;;;;;5011545;28;20227;-75
2021/12/20 13:46:43;;;;;;;5.53;2.05;;;;;;;;;;5012216;28;20207;-76
2021/12/20 13:49:13;;;;;;;5.47;1.95;;;;;;;;;;5007791;28;20226;-75
2021/12/20 13:51:42;;;;;;;3.03;1.70;;;;;;;;;;4996348;28;20566;-75
2021/12/20 13:54:24;;;;;;;5.53;2.47;;;;;;;;;;5003505;28;20188;-75
2021/12/20 13:56:52;;;;;;;6.07;2.05;;;;;;;;;;5008959;28;20204;-76
2021/12/20 13:59:23;;;;;;;4.10;1.58;;;;;;;;;;5009569;28;20231;-75
2021/12/20 14:01:50;;;;;;;3.58;1.70;;;;;;;;;;5009635;28;20443;-75
2021/12/20 14:04:29;;;;;;;4.82;1.92;;;;;;;;;;5010161;28;20717;-75
2021/12/20 14:06:57;;;;;;;3.60;1.85;;;;;;;;;;4997947;28;20211;-75
2021/12/20 14:09:35;;;;;;;6.20;2.45;;;;;;;;;;4994918;28;20287;-75
2021/12/20 14:12:11;;;;;;;3.53;1.85;;;;;;;;;;4991934;28;20201;-75
2021/12/20 14:14:39;;;;;;;3.10;1.88;;;;;;;;;;4991640;28;20688;-76
2021/12/20 14:17:06;;;;;;;3.25;1.88;;;;;;;;;;5010761;28;20569;-76
2021/12/20 14:19:48;;;;;;;5.22;1.90;;;;;;;;;;5010266;28;20250;-76
2021/12/20 14:22:17;;;;;;;5.85;2.00;;;;;;;;;;5001170;28;20219;-75
2021/12/20 14:24:44;;;;;;;3.03;1.60;;;;;;;;;;4996859;28;20279;-75
2021/12/20 14:27:12;;;;;;;4.90;1.98;;;;;;;;;;5010460;28;20211;-75
2021/12/20 14:29:40;;;;;;;3.75;2.17;;;;;;;;;;5008556;28;20212;-75
2021/12/20 14:32:09;;;;;;;6.63;1.80;;;;;;;;;;5008655;28;20565;-76
2021/12/20 14:34:38;;;;;;;5.38;1.70;;;;;;;;;;5010453;28;20581;-75
2021/12/20 14:37:09;;;;;;;7.68;2.47;;;;;;;;;;5004749;28;20200;-75
2021/12/20 14:39:44;;;;;;;3.30;1.45;;;;;;;;;;4996767;28;20565;-76
2021/12/20 14:42:11;;;;;;;3.80;2.17;;;;;;;;;;5006084;28;20200;-76
2021/12/20 14:44:46;;;;;;;4.00;2.03;;;;;;;;;;5009904;28;20573;-76
2021/12/20 14:47:24;;;;;;;5.43;2.67;;;;;;;;;;5010610;28;20196;-76
2021/12/20 14:49:56;;;;;;;5.22;2.05;;;;;;;;;;5008739;28;20808;-76
2021/12/20 14:52:27;;;;;;;2.95;1.90;;;;;;;;;;5002339;28;20614;-76
2021/12/20 14:54:56;;;;;;;2.97;1.70;;;;;;;;;;4995430;28;20528;-75
2021/12/20 14:57:24;;;;;;;3.30;1.40;;;;;;;;;;4999090;28;20200;-76